Reilly, Pennsylvania
Current Conditions -  °F | °C
As of 3:11 AM on Monday 26 Jan 2015 (Local Time) from KMUI Reporting Station
Light Snow Light Snow  
Wind Chill: 16°   Ceiling: 1100
Heat Index: 25°   Visibility: 1.2mi
Dew Point: 23°   Wind: 8mph
Humidity: 93%   Direction: 60°ENE
Pressure: 29.9"   Gusts: NA
Location:  40.6756°N, 76.3278°W
Report Text: KMUI 260811Z AUTO 06007KT 1 1/4SM -SN BR OVC011 M04/M05 A2990 RMK AO2 VIS 1 1/4V2
Loading
Personal Weather Stations






























Interactive Weather Map New forecast layout! Learn more

10-Day Weather Forecast

Advertisements
Track Severe Weather on mobile